createdAt,value
2017-12-31T16:34:29.491Z,12.16
2017-12-31T16:35:30.504Z,12.05
2017-12-31T16:37:24.095Z,12.19
2017-12-31T16:38:24.102Z,12.13
2017-12-31T16:40:18.276Z,12.14
2017-12-31T16:41:14.959Z,12.12
2017-12-31T16:43:11.178Z,11.95
2017-12-31T16:44:11.185Z,12.01
2017-12-31T16:46:03.855Z,12.13
2017-12-31T16:47:04.816Z,12.09
2017-12-31T16:48:57.402Z,11.95
2017-12-31T16:49:58.470Z,12.12
2017-12-31T16:51:50.964Z,12.14
2017-12-31T16:52:51.857Z,12.21
2017-12-31T16:54:45.519Z,12.16
2017-12-31T16:55:44.576Z,12.13
2017-12-31T16:57:39.585Z,12.13
2017-12-31T16:58:36.325Z,12.05
2017-12-31T17:00:32.520Z,11.94
2017-12-31T17:01:32.571Z,11.99
2017-12-31T17:03:25.227Z,11.98
2017-12-31T17:04:26.129Z,11.96
2017-12-31T17:06:19.624Z,12.01
2017-12-31T17:07:19.680Z,12.01
2017-12-31T17:09:12.338Z,12.04
2017-12-31T17:11:26.650Z,12.12
2017-12-31T17:12:26.688Z,12.10
2017-12-31T17:14:20.830Z,12.12
2017-12-31T17:15:20.211Z,12.17
2017-12-31T17:17:13.810Z,12.20
2017-12-31T17:18:13.771Z,12.28
2017-12-31T17:20:06.308Z,12.21
2017-12-31T17:21:07.373Z,12.24
2017-12-31T17:23:00.966Z,12.09
2017-12-31T17:24:00.893Z,12.07
2017-12-31T17:25:51.673Z,12.07
2017-12-31T17:26:54.493Z,11.96
2017-12-31T17:28:48.012Z,11.91
2017-12-31T17:29:48.088Z,11.88
2017-12-31T17:31:40.570Z,11.83
2017-12-31T17:32:41.582Z,11.86
2017-12-31T17:34:35.068Z,11.80
2017-12-31T17:35:35.141Z,11.73
2017-12-31T17:37:28.433Z,11.79
2017-12-31T17:39:42.145Z,11.76
2017-12-31T17:40:42.125Z,11.73
2017-12-31T17:42:34.763Z,11.78
2017-12-31T17:43:35.269Z,11.75
2017-12-31T17:45:28.353Z,11.82
2017-12-31T17:46:29.239Z,11.67
2017-12-31T17:48:21.869Z,11.73
2017-12-31T17:49:22.790Z,11.76
2017-12-31T17:51:15.763Z,11.76
2017-12-31T17:52:16.365Z,11.80
2017-12-31T17:54:09.938Z,11.78
2017-12-31T17:55:09.914Z,11.78
2017-12-31T17:57:02.589Z,11.83
2017-12-31T17:58:03.478Z,11.69
2017-12-31T17:59:56.197Z,11.70
2017-12-31T18:00:54.387Z,11.65
2017-12-31T18:02:49.516Z,11.76
2017-12-31T18:03:50.628Z,11.70
2017-12-31T18:05:43.291Z,11.75
2017-12-31T18:06:44.171Z,11.75
2017-12-31T18:08:37.726Z,11.70
2017-12-31T18:09:37.731Z,11.70
2017-12-31T18:11:30.926Z,11.73
2017-12-31T18:12:31.322Z,11.65
2017-12-31T18:14:21.986Z,11.60
2017-12-31T18:15:24.906Z,11.54
2017-12-31T18:17:17.534Z,11.57
2017-12-31T18:18:15.740Z,11.57
2017-12-31T18:20:10.843Z,11.60
2017-12-31T18:21:11.970Z,11.54
2017-12-31T18:23:05.588Z,11.57
2017-12-31T18:24:05.565Z,11.57
2017-12-31T18:25:58.240Z,11.49
2017-12-31T18:26:59.096Z,11.42
2017-12-31T18:28:52.663Z,11.40
2017-12-31T18:29:52.688Z,11.42
2017-12-31T18:31:45.295Z,11.42
2017-12-31T18:32:46.206Z,11.32
2017-12-31T18:34:39.818Z,11.40
2017-12-31T18:35:37.111Z,11.37
2017-12-31T18:37:32.440Z,11.32
2017-12-31T18:38:33.336Z,11.33
2017-12-31T18:40:26.898Z,11.27
2017-12-31T18:41:26.927Z,11.32
2017-12-31T18:43:18.173Z,11.43
2017-12-31T18:44:20.462Z,11.29
2017-12-31T18:46:14.004Z,11.32
2017-12-31T18:47:14.021Z,11.36
2017-12-31T18:49:06.701Z,11.22
2017-12-31T18:50:07.585Z,11.22
2017-12-31T18:52:01.162Z,11.27
2017-12-31T18:53:01.194Z,11.19
2017-12-31T18:54:53.543Z,11.11
2017-12-31T18:55:54.696Z,11.10
2017-12-31T18:57:48.145Z,11.15
2017-12-31T18:58:48.292Z,11.06
2017-12-31T19:00:39.025Z,11.10
2017-12-31T19:01:41.861Z,11.10
2017-12-31T19:03:35.387Z,11.09
2017-12-31T19:04:35.428Z,11.15
2017-12-31T19:06:28.155Z,11.11
2017-12-31T19:07:28.973Z,11.14
2017-12-31T19:09:22.548Z,11.09
2017-12-31T19:10:22.512Z,11.14
2017-12-31T19:12:15.164Z,11.11
2017-12-31T19:13:16.023Z,11.11
2017-12-31T19:15:09.702Z,11.11
2017-12-31T19:16:09.664Z,11.06
2017-12-31T19:18:03.846Z,11.04
2017-12-31T19:19:03.186Z,11.10
2017-12-31T19:20:56.761Z,11.07
2017-12-31T19:21:56.817Z,11.09
2017-12-31T19:23:49.477Z,11.10
2017-12-31T19:24:50.374Z,11.15
2017-12-31T19:26:43.861Z,11.15
2017-12-31T19:27:43.920Z,11.14
2017-12-31T19:29:37.818Z,11.36
2017-12-31T19:30:37.473Z,11.36
2017-12-31T19:32:31.040Z,11.42
2017-12-31T19:33:31.035Z,11.39
2017-12-31T19:35:22.318Z,11.52
2017-12-31T19:36:24.605Z,11.47
2017-12-31T19:38:18.152Z,11.49
2017-12-31T19:39:18.119Z,11.69
2017-12-31T19:41:10.767Z,11.73
2017-12-31T19:42:11.683Z,11.73
2017-12-31T19:44:05.277Z,11.62
2017-12-31T19:45:05.274Z,11.70
2017-12-31T19:46:57.866Z,11.73
2017-12-31T19:47:58.819Z,11.94
2017-12-31T19:49:51.539Z,12.04
2017-12-31T19:50:52.396Z,12.13
2017-12-31T19:52:44.043Z,12.05
2017-12-31T19:53:45.921Z,12.17
2017-12-31T19:55:40.133Z,12.23
2017-12-31T19:56:39.500Z,12.37
2017-12-31T19:58:33.055Z,12.53
2017-12-31T19:59:33.056Z,12.53
2017-12-31T20:01:25.686Z,12.57
2017-12-31T20:02:26.615Z,12.64
2017-12-31T20:04:20.278Z,12.56
2017-12-31T20:05:20.156Z,12.57
2017-12-31T20:07:14.320Z,12.46
2017-12-31T20:08:13.723Z,12.20
2017-12-31T20:10:07.294Z,11.99
2017-12-31T20:11:07.380Z,11.94
2017-12-31T20:12:59.991Z,11.79
2017-12-31T20:14:00.882Z,11.64
2017-12-31T20:15:53.257Z,11.55
2017-12-31T20:16:54.459Z,11.39
2017-12-31T20:18:47.080Z,11.18
2017-12-31T20:19:48.053Z,11.09
2017-12-31T20:21:41.486Z,10.96
2017-12-31T20:22:41.554Z,10.85
2017-12-31T20:24:33.436Z,10.89
2017-12-31T20:25:35.269Z,10.79
2017-12-31T20:27:28.056Z,10.68
2017-12-31T20:28:28.720Z,10.68
2017-12-31T20:30:21.170Z,10.63
2017-12-31T20:31:22.229Z,10.61
2017-12-31T20:33:15.817Z,10.59
2017-12-31T20:34:15.791Z,10.60
2017-12-31T20:36:08.468Z,10.63
2017-12-31T20:37:09.346Z,10.60
2017-12-31T20:39:02.949Z,10.44
2017-12-31T20:40:02.930Z,10.40
2017-12-31T20:41:56.238Z,10.27
2017-12-31T20:42:56.474Z,10.29
2017-12-31T20:44:47.189Z,10.30
2017-12-31T20:45:50.039Z,10.32
2017-12-31T20:47:42.745Z,10.15
2017-12-31T20:48:43.743Z,10.15
2017-12-31T20:50:37.217Z,10.12
2017-12-31T20:51:37.161Z,10.11
2017-12-31T20:53:31.631Z,10.09
2017-12-31T20:54:30.718Z,10.02
2017-12-31T20:56:23.198Z,9.93
2017-12-31T20:57:24.313Z,9.96
2017-12-31T20:59:16.994Z,9.89
2017-12-31T21:00:17.830Z,9.87
2017-12-31T21:02:10.303Z,9.83
2017-12-31T21:03:10.579Z,9.69
2017-12-31T21:05:05.018Z,9.65
2017-12-31T21:06:04.988Z,9.60
2017-12-31T21:07:57.650Z,9.64
2017-12-31T21:08:58.563Z,9.61
2017-12-31T21:10:52.175Z,9.56
2017-12-31T21:11:52.087Z,9.56
2017-12-31T21:13:42.838Z,9.54
2017-12-31T21:14:46.588Z,9.56
2017-12-31T21:16:39.252Z,9.61
2017-12-31T21:17:39.205Z,9.57
2017-12-31T21:19:30.775Z,9.64
2017-12-31T21:20:32.795Z,9.64
2017-12-31T21:22:26.385Z,9.60
2017-12-31T21:23:26.348Z,9.61
2017-12-31T21:25:18.796Z,9.58
2017-12-31T21:26:19.975Z,9.60
2017-12-31T21:28:13.450Z,9.56
2017-12-31T21:29:13.449Z,9.48
2017-12-31T21:31:06.142Z,9.61
2017-12-31T21:32:07.005Z,9.47
2017-12-31T21:34:00.576Z,9.48
2017-12-31T21:35:00.576Z,9.46
2017-12-31T21:36:53.336Z,9.58
2017-12-31T21:37:54.143Z,9.51
2017-12-31T21:39:47.729Z,9.48
2017-12-31T21:40:47.698Z,9.48
2017-12-31T21:42:40.375Z,9.47
2017-12-31T21:43:41.240Z,9.47
2017-12-31T21:45:33.963Z,9.58
2017-12-31T21:46:34.819Z,9.58
2017-12-31T21:48:28.374Z,9.60
2017-12-31T21:49:28.421Z,9.51
2017-12-31T21:51:20.838Z,9.53
2017-12-31T21:52:21.918Z,9.53
2017-12-31T21:54:12.634Z,9.54
2017-12-31T21:55:15.513Z,9.50
2017-12-31T21:57:08.129Z,9.60
2017-12-31T21:58:09.091Z,9.66
2017-12-31T22:00:02.603Z,9.60
2017-12-31T22:01:02.600Z,9.64
2017-12-31T22:02:56.825Z,9.66
2017-12-31T22:03:56.169Z,9.71
2017-12-31T22:05:49.709Z,9.68
2017-12-31T22:06:49.746Z,9.68
2017-12-31T22:08:42.407Z,9.68
2017-12-31T22:09:43.328Z,9.83
2017-12-31T22:11:34.197Z,9.72
2017-12-31T22:12:36.884Z,9.74
2017-12-31T22:14:29.526Z,9.65
2017-12-31T22:15:30.566Z,9.74
2017-12-31T22:17:24.026Z,9.66
2017-12-31T22:18:24.011Z,9.72
2017-12-31T22:20:15.373Z,9.69
2017-12-31T22:21:17.552Z,9.68
2017-12-31T22:23:11.153Z,9.83
2017-12-31T22:24:11.071Z,9.87
2017-12-31T22:26:03.718Z,9.94
2017-12-31T22:27:04.643Z,9.86
2017-12-31T22:28:55.629Z,10.01
2017-12-31T22:29:56.542Z,9.96
2017-12-31T22:31:50.834Z,9.90
2017-12-31T22:32:51.760Z,9.99
2017-12-31T22:34:45.195Z,10.02
2017-12-31T22:35:45.311Z,9.93
2017-12-31T22:37:38.031Z,9.94
2017-12-31T22:38:38.875Z,9.99
2017-12-31T22:40:32.436Z,9.94
2017-12-31T22:41:32.438Z,9.91
2017-12-31T22:43:26.631Z,9.94
2017-12-31T22:44:26.007Z,9.94
2017-12-31T22:46:19.548Z,9.90
2017-12-31T22:47:19.563Z,9.97
2017-12-31T22:49:12.235Z,10.01
2017-12-31T22:50:13.113Z,10.04
2017-12-31T22:52:05.634Z,9.96
2017-12-31T22:53:06.737Z,9.89
2017-12-31T22:55:03.581Z,9.86
2017-12-31T22:56:00.237Z,9.93
2017-12-31T22:57:53.020Z,9.89
2017-12-31T22:58:52.541Z,9.79
2017-12-31T23:00:47.367Z,9.83
2017-12-31T23:01:47.424Z,9.91
2017-12-31T23:03:41.501Z,9.96
2017-12-31T23:04:39.992Z,9.94
2017-12-31T23:06:33.418Z,9.83
2017-12-31T23:07:34.518Z,9.81
2017-12-31T23:09:26.974Z,9.84
2017-12-31T23:10:28.028Z,9.83
2017-12-31T23:12:21.586Z,9.86
2017-12-31T23:14:34.068Z,9.87
2017-12-31T23:15:35.003Z,9.84
2017-12-31T23:17:28.558Z,9.69
2017-12-31T23:18:26.886Z,9.56
2017-12-31T23:20:21.570Z,9.56
2017-12-31T23:21:19.764Z,9.35
2017-12-31T23:23:15.893Z,9.15
2017-12-31T23:24:15.668Z,9.05
2017-12-31T23:26:06.961Z,8.89
2017-12-31T23:27:09.266Z,8.96
2017-12-31T23:29:02.807Z,8.92
2017-12-31T23:30:01.250Z,8.87
2017-12-31T23:31:55.522Z,8.83
2017-12-31T23:32:56.760Z,8.77
2017-12-31T23:34:49.946Z,8.71
2017-12-31T23:35:48.289Z,8.55
2017-12-31T23:37:42.716Z,8.47
2017-12-31T23:38:41.623Z,8.52
2017-12-31T23:40:36.140Z,8.34
2017-12-31T23:42:50.431Z,8.30
2017-12-31T23:43:50.512Z,8.20
2017-12-31T23:45:43.097Z,8.20
2017-12-31T23:46:44.025Z,8.22
2017-12-31T23:48:36.699Z,8.16
2017-12-31T23:49:37.614Z,8.15
2017-12-31T23:51:30.171Z,8.16
2017-12-31T23:52:31.192Z,8.11
2017-12-31T23:54:24.693Z,8.15
2017-12-31T23:55:24.684Z,8.18
2017-12-31T23:57:18.947Z,8.15
2017-12-31T23:58:18.284Z,8.22
